Time;durP1;ratioP1;P1;durP2;ratioP2;P2;SDS_P1;SDS_P2;PMS_P1;PMS_P2;Temp;Humidity;BMP_temperature;BMP_pressure;BME280_temperature;BME280_humidity;BME280_pressure;Samples;Min_cycle;Max_cycle;Signal;HPM_P1;HPM_P2
2021/01/01 00:03:01;;;;;;;177.63;88.50;;;;;;;4.57;92.80;100898.91;6330975;28;20283;-76
2021/01/01 00:06:10;;;;;;;169.37;85.80;;;;;;;4.47;92.71;100884.75;6320240;28;20220;-77
2021/01/01 00:09:14;;;;;;;180.37;87.40;;;;;;;4.67;92.16;100902.25;6337741;28;20187;-78
2021/01/01 00:12:17;;;;;;;185.03;86.53;;;;;;;4.54;92.03;100899.28;6334341;27;20216;-77
2021/01/01 00:15:21;;;;;;;167.93;80.30;;;;;;;4.63;92.00;100895.50;6338915;28;20209;-77
2021/01/01 00:18:31;;;;;;;175.23;85.10;;;;;;;4.64;91.30;100891.78;6331862;28;20368;-76
2021/01/01 00:21:35;;;;;;;155.03;74.57;;;;;;;4.71;91.09;100892.75;6324214;28;20196;-78
2021/01/01 00:24:39;;;;;;;151.03;73.83;;;;;;;4.52;92.09;100893.19;6342293;28;20256;-76
2021/01/01 00:27:42;;;;;;;140.07;68.90;;;;;;;4.58;91.87;100892.50;6357323;28;20240;-78
2021/01/01 00:30:45;;;;;;;149.70;74.40;;;;;;;4.54;90.63;100896.56;6356101;28;20673;-76
2021/01/01 00:33:50;;;;;;;143.23;72.60;;;;;;;4.44;90.34;100885.16;6358328;27;20682;-76
2021/01/01 00:36:53;;;;;;;168.90;78.33;;;;;;;4.13;92.21;100897.75;6352744;28;20569;-75
2021/01/01 00:39:56;;;;;;;167.83;81.00;;;;;;;3.98;93.61;100899.50;6355688;28;20238;-77
2021/01/01 00:43:00;;;;;;;173.27;84.43;;;;;;;3.92;93.48;100900.19;6361669;28;20648;-79
2021/01/01 00:46:05;;;;;;;168.77;80.33;;;;;;;3.99;92.77;100901.16;6374728;28;20238;-77
2021/01/01 00:49:10;;;;;;;152.67;72.57;;;;;;;4.00;92.99;100902.84;6355435;28;20195;-76
2021/01/01 00:52:13;;;;;;;173.80;81.93;;;;;;;3.89;92.60;100892.41;6354276;27;20654;-77
2021/01/01 00:55:18;;;;;;;143.03;66.33;;;;;;;3.88;93.05;100906.94;6358626;28;20565;-76
2021/01/01 00:58:22;;;;;;;125.43;61.10;;;;;;;3.80;92.99;100919.41;6352342;28;20197;-77
2021/01/01 01:01:27;;;;;;;140.27;61.80;;;;;;;3.77;93.19;100919.75;6358097;27;20194;-77
2021/01/01 01:04:31;;;;;;;132.40;58.57;;;;;;;3.91;92.44;100925.47;6361220;28;20192;-78
2021/01/01 01:07:35;;;;;;;121.33;57.07;;;;;;;4.00;91.93;100929.84;6356256;28;20220;-76
2021/01/01 01:10:39;;;;;;;114.57;54.73;;;;;;;3.99;91.70;100933.56;6377795;27;21023;-78
2021/01/01 01:13:43;;;;;;;123.10;55.83;;;;;;;4.03;91.27;100935.72;6365897;27;20289;-76
2021/01/01 01:16:46;;;;;;;108.50;50.97;;;;;;;4.06;90.81;100937.25;6389327;27;20625;-75
2021/01/01 01:19:50;;;;;;;102.57;49.63;;;;;;;3.97;91.53;100935.59;6387343;27;20606;-77
2021/01/01 01:22:54;;;;;;;117.07;52.50;;;;;;;3.99;91.09;100941.66;6389933;27;20219;-77
2021/01/01 01:25:58;;;;;;;107.03;51.67;;;;;;;3.96;90.72;100942.84;6391488;27;20221;-76
2021/01/01 01:29:01;;;;;;;110.23;52.43;;;;;;;3.94;91.00;100947.56;6395326;27;20203;-77
2021/01/01 01:32:06;;;;;;;116.63;52.83;;;;;;;3.86;90.86;100938.63;6388655;27;20284;-78
2021/01/01 01:35:14;;;;;;;112.83;53.40;;;;;;;3.99;91.52;100944.34;6388581;27;20193;-77
2021/01/01 01:38:23;;;;;;;104.57;50.07;;;;;;;3.92;91.34;100948.75;6387784;27;20611;-77
2021/01/01 01:41:27;;;;;;;100.10;49.57;;;;;;;4.00;91.25;100946.06;6383066;27;20203;-76
2021/01/01 01:44:30;;;;;;;100.63;48.03;;;;;;;3.97;91.99;100946.38;6386755;27;20204;-78
2021/01/01 01:47:34;;;;;;;115.20;52.23;;;;;;;3.77;92.45;100946.75;6392295;27;20212;-77
2021/01/01 01:50:38;;;;;;;115.90;50.23;;;;;;;3.70;93.56;100956.53;6409862;27;20222;-78
2021/01/01 01:53:44;;;;;;;117.13;52.40;;;;;;;3.61;94.13;100949.47;6397529;27;20204;-78
2021/01/01 01:56:48;;;;;;;104.27;48.43;;;;;;;3.57;94.26;100950.81;6385873;27;20227;-78
2021/01/01 01:59:56;;;;;;;98.10;47.23;;;;;;;3.66;93.86;100960.59;6394336;27;20207;-78
2021/01/01 02:02:59;;;;;;;100.07;46.23;;;;;;;3.78;93.40;100959.25;6385513;27;20195;-77
2021/01/01 02:06:04;;;;;;;93.30;46.20;;;;;;;3.80;93.59;100962.59;6384596;27;20208;-75
2021/01/01 02:09:09;;;;;;;90.63;42.97;;;;;;;3.68;93.80;100966.66;6395285;27;20627;-77
2021/01/01 02:12:15;;;;;;;93.30;42.57;;;;;;;3.59;93.99;100956.91;6392485;27;20308;-77
2021/01/01 02:15:18;;;;;;;98.40;46.80;;;;;;;3.42;94.75;100952.50;6387138;27;20371;-78
2021/01/01 02:18:36;;;;;;;83.07;39.43;;;;;;;3.50;95.42;100971.38;6394575;27;20483;-77
2021/01/01 02:21:41;;;;;;;89.40;41.93;;;;;;;3.55;95.44;100969.03;6376516;27;20650;-77
2021/01/01 02:24:45;;;;;;;82.23;39.17;;;;;;;3.51;95.56;100962.28;6372312;27;20243;-76
2021/01/01 02:27:49;;;;;;;79.40;38.83;;;;;;;3.48;94.93;100946.44;6385830;27;20376;-76
2021/01/01 02:30:53;;;;;;;66.67;33.90;;;;;;;3.75;94.86;100969.50;6383515;27;20198;-76
2021/01/01 02:33:56;;;;;;;47.37;24.80;;;;;;;3.64;93.84;100968.03;6390282;27;20199;-76
2021/01/01 02:36:59;;;;;;;47.13;25.00;;;;;;;3.67;94.66;100970.38;6387646;27;20686;-77
2021/01/01 02:40:05;;;;;;;62.70;31.10;;;;;;;3.70;94.16;100978.13;6389587;27;20232;-76
2021/01/01 02:43:16;;;;;;;49.30;25.50;;;;;;;3.81;93.70;100974.25;6387081;27;20249;-76
2021/01/01 02:46:20;;;;;;;48.20;26.27;;;;;;;3.72;94.21;100986.06;6384775;27;20585;-77
2021/01/01 02:49:24;;;;;;;48.07;24.73;;;;;;;3.71;93.99;100969.03;6386842;27;20203;-77
2021/01/01 02:52:27;;;;;;;42.67;22.93;;;;;;;3.76;93.29;100977.47;6383635;27;20216;-76
2021/01/01 02:55:33;;;;;;;34.40;20.20;;;;;;;3.77;93.68;100975.63;6400710;27;20185;-79
2021/01/01 02:58:36;;;;;;;31.10;18.20;;;;;;;3.90;92.69;100977.78;6398775;27;20642;-77
2021/01/01 03:01:39;;;;;;;39.40;19.27;;;;;;;3.85;92.65;100980.16;6386509;27;20190;-76
2021/01/01 03:04:43;;;;;;;32.80;18.90;;;;;;;3.78;93.25;100982.69;6392859;27;20204;-76
2021/01/01 03:07:46;;;;;;;27.30;15.13;;;;;;;3.75;93.06;100981.16;6384627;27;20220;-76
2021/01/01 03:10:50;;;;;;;30.63;16.87;;;;;;;3.74;92.77;100981.34;6391887;27;20201;-76
2021/01/01 03:13:54;;;;;;;32.77;17.30;;;;;;;3.71;92.39;100985.22;6389686;27;20646;-77
2021/01/01 03:16:58;;;;;;;31.63;15.97;;;;;;;3.83;92.59;100982.19;6388664;27;20555;-76
2021/01/01 03:20:02;;;;;;;23.83;14.50;;;;;;;3.79;91.49;100985.22;6387684;27;20423;-77
2021/01/01 03:23:10;;;;;;;26.50;15.30;;;;;;;3.77;91.62;100984.53;6389841;27;20189;-77
2021/01/01 03:26:14;;;;;;;17.43;11.30;;;;;;;3.78;92.86;100997.03;6389426;27;20239;-77
2021/01/01 03:29:18;;;;;;;26.53;15.00;;;;;;;3.78;92.40;100991.63;6385671;27;20198;-77
2021/01/01 03:32:22;;;;;;;28.67;16.23;;;;;;;3.62;93.49;100970.03;6388742;27;20199;-78
2021/01/01 03:35:26;;;;;;;31.60;17.80;;;;;;;3.80;92.95;101011.19;6385129;27;20200;-76
2021/01/01 03:38:34;;;;;;;33.00;18.57;;;;;;;3.68;92.25;100969.38;6393161;27;20552;-76
2021/01/01 03:41:39;;;;;;;36.43;17.43;;;;;;;3.80;92.64;101000.38;6386649;27;20555;-78
2021/01/01 03:44:42;;;;;;;23.40;14.83;;;;;;;3.82;93.30;100996.69;6377953;27;20205;-77
2021/01/01 03:47:45;;;;;;;24.37;13.93;;;;;;;3.88;92.94;101001.41;6371535;27;20681;-78
2021/01/01 03:50:48;;;;;;;24.20;13.90;;;;;;;3.93;92.64;101004.44;6392142;27;20210;-77
2021/01/01 03:53:52;;;;;;;23.43;13.50;;;;;;;3.88;91.94;100996.84;6389293;27;20193;-75
2021/01/01 03:56:56;;;;;;;21.87;13.57;;;;;;;3.84;92.00;100991.94;6392918;27;20327;-76
2021/01/01 04:00:04;;;;;;;18.53;12.33;;;;;;;3.90;92.03;100991.28;6377700;27;20231;-76
2021/01/01 04:03:34;;;;;;;18.80;12.30;;;;;;;3.81;92.81;100995.84;6412674;27;20271;-75
2021/01/01 04:06:37;;;;;;;19.40;12.47;;;;;;;3.90;92.98;100999.38;6388071;27;20696;-76
2021/01/01 04:09:40;;;;;;;8.10;6.90;;;;;;;3.88;91.57;100996.03;6383173;27;20614;-76
2021/01/01 04:12:45;;;;;;;7.30;6.60;;;;;;;4.08;89.80;101000.03;6367985;27;20302;-76
2021/01/01 04:15:48;;;;;;;6.40;5.80;;;;;;;4.09;90.25;101007.09;6389972;27;20191;-75
2021/01/01 04:18:51;;;;;;;8.10;6.77;;;;;;;4.04;90.52;100996.81;6349228;27;20198;-76
2021/01/01 04:21:55;;;;;;;16.13;9.27;;;;;;;3.90;91.60;101004.78;6355124;27;20196;-77
2021/01/01 04:24:58;;;;;;;11.03;8.47;;;;;;;3.63;92.05;100993.31;6365488;27;20247;-77
2021/01/01 04:28:03;;;;;;;8.90;6.87;;;;;;;3.78;91.34;100997.03;6355929;28;20207;-79
2021/01/01 04:31:06;;;;;;;7.00;5.57;;;;;;;3.80;91.84;100995.00;6356074;28;20333;-77
2021/01/01 04:34:11;;;;;;;8.27;6.17;;;;;;;3.71;91.68;100996.00;6356462;28;20202;-77
2021/01/01 04:37:16;;;;;;;7.40;6.60;;;;;;;3.50;92.59;100998.38;6363093;28;20887;-76
2021/01/01 04:40:20;;;;;;;5.83;4.83;;;;;;;3.69;91.00;100981.84;6364803;27;20264;-77
2021/01/01 04:43:30;;;;;;;5.10;4.70;;;;;;;3.65;92.03;100991.28;6358317;28;20241;-76
2021/01/01 04:46:37;;;;;;;9.13;7.00;;;;;;;3.42;92.18;100965.97;6362298;27;20193;-76
2021/01/01 04:49:41;;;;;;;7.50;6.57;;;;;;;3.45;92.31;101005.25;6363738;27;20200;-77
2021/01/01 04:52:48;;;;;;;8.03;6.80;;;;;;;3.40;93.28;101003.06;6366320;27;20280;-78
2021/01/01 04:55:54;;;;;;;5.93;5.33;;;;;;;3.15;93.54;100998.66;6363987;27;20447;-76
2021/01/01 04:58:59;;;;;;;6.70;5.70;;;;;;;3.28;94.21;101003.56;6362835;27;20218;-76
2021/01/01 05:02:03;;;;;;;6.83;5.00;;;;;;;3.36;93.04;101004.44;6366785;27;20203;-76
2021/01/01 05:05:10;;;;;;;6.17;5.23;;;;;;;3.27;93.65;101005.41;6366281;27;20204;-77
2021/01/01 05:08:22;;;;;;;6.77;5.13;;;;;;;3.25;94.33;101007.44;6374634;27;20284;-79
2021/01/01 05:11:26;;;;;;;5.70;5.30;;;;;;;3.18;94.69;101009.13;6368270;27;20199;-77
2021/01/01 05:14:30;;;;;;;5.17;4.70;;;;;;;3.24;94.59;101011.13;6366709;27;20189;-76
2021/01/01 05:17:35;;;;;;;5.33;4.73;;;;;;;3.24;93.92;101019.22;6366090;27;20572;-77
2021/01/01 05:20:39;;;;;;;5.77;5.20;;;;;;;3.25;93.97;101025.47;6365618;27;20621;-77
2021/01/01 05:23:44;;;;;;;5.90;5.33;;;;;;;3.21;94.07;101024.13;6361318;27;20242;-76
2021/01/01 05:26:48;;;;;;;4.93;4.40;;;;;;;3.14;94.72;101023.91;6365346;27;20220;-76
2021/01/01 05:29:55;;;;;;;4.00;3.73;;;;;;;3.20;94.00;101034.06;6369783;27;20560;-76
2021/01/01 05:32:59;;;;;;;3.83;3.43;;;;;;;3.21;93.75;101030.31;6369615;27;20707;-76
2021/01/01 05:36:07;;;;;;;4.07;3.77;;;;;;;3.21;93.75;101030.31;6367043;27;20185;-76
2021/01/01 05:39:21;;;;;;;4.13;3.70;;;;;;;3.15;93.78;101026.47;6366246;27;20202;-76
2021/01/01 05:42:24;;;;;;;4.63;4.33;;;;;;;3.05;93.77;101027.59;6361805;27;20201;-76
2021/01/01 05:45:29;;;;;;;3.53;3.43;;;;;;;3.21;92.89;101030.31;6367982;27;20256;-78
2021/01/01 05:48:32;;;;;;;3.20;3.00;;;;;;;3.19;92.74;101035.03;6345927;27;20288;-77
2021/01/01 05:51:35;;;;;;;3.43;3.33;;;;;;;3.29;91.96;101043.03;6356609;27;20221;-75
2021/01/01 05:54:40;;;;;;;4.07;3.77;;;;;;;3.24;92.16;101040.78;6345052;27;20200;-76
2021/01/01 05:57:43;;;;;;;4.27;4.07;;;;;;;3.07;92.62;101044.47;6365352;27;20674;-77
2021/01/01 06:00:53;;;;;;;4.43;3.90;;;;;;;3.12;93.04;101052.91;6369726;27;20225;-76
2021/01/01 06:04:04;;;;;;;4.13;3.73;;;;;;;3.11;93.94;101040.41;6349643;27;20192;-76
2021/01/01 06:07:10;;;;;;;3.73;3.63;;;;;;;3.24;93.21;101056.13;6385051;27;20254;-77
2021/01/01 06:10:13;;;;;;;4.23;3.80;;;;;;;3.30;92.38;101050.94;6349741;27;20638;-76
2021/01/01 06:13:21;;;;;;;4.10;3.80;;;;;;;3.17;91.79;101053.25;6367801;27;20555;-77
2021/01/01 06:16:27;;;;;;;4.17;3.90;;;;;;;3.07;92.72;101049.84;6374803;27;20190;-76
2021/01/01 06:19:43;;;;;;;5.33;3.50;;;;;;;3.24;93.07;101056.97;6367322;27;20196;-77
2021/01/01 06:23:02;;;;;;;3.43;3.23;;;;;;;3.17;92.02;101045.16;6359368;27;20200;-76
2021/01/01 06:26:12;;;;;;;4.10;3.70;;;;;;;3.38;92.18;101055.50;6367439;27;20232;-76
2021/01/01 06:29:18;;;;;;;3.40;3.20;;;;;;;3.42;91.73;101060.38;6351896;27;20263;-77
2021/01/01 06:32:23;;;;;;;4.27;3.50;;;;;;;3.47;91.41;101063.44;6383309;27;20248;-76
2021/01/01 06:35:27;;;;;;;3.63;3.43;;;;;;;3.48;91.10;101065.13;6387271;27;20240;-76
2021/01/01 06:38:51;;;;;;;3.60;3.40;;;;;;;3.51;91.30;101070.19;6363446;27;20300;-76
2021/01/01 06:41:54;;;;;;;3.43;3.23;;;;;;;3.43;91.41;101067.47;6366573;27;20213;-77
2021/01/01 06:44:58;;;;;;;3.07;2.97;;;;;;;3.53;90.94;101072.72;6373928;27;20639;-76
2021/01/01 06:48:02;;;;;;;3.90;3.70;;;;;;;3.44;91.30;101069.16;6365853;27;20665;-76
2021/01/01 06:51:13;;;;;;;3.17;2.70;;;;;;;3.36;90.87;101050.28;6352201;27;20217;-77
2021/01/01 06:54:16;;;;;;;3.60;3.30;;;;;;;3.45;91.40;101060.06;6354827;27;20572;-76
2021/01/01 06:57:23;;;;;;;3.23;3.00;;;;;;;3.40;91.55;101078.59;6361616;27;20190;-76
2021/01/01 07:00:55;;;;;;;3.00;2.90;;;;;;;3.38;91.06;101077.06;6356916;27;20726;-78
2021/01/01 07:03:59;;;;;;;2.97;2.87;;;;;;;3.50;91.84;101081.97;6392960;27;20564;-76
2021/01/01 07:07:02;;;;;;;3.00;2.90;;;;;;;3.39;92.57;101076.06;6371167;27;20184;-76
2021/01/01 07:10:09;;;;;;;3.30;3.20;;;;;;;3.46;92.23;101072.56;6378282;27;20206;-76
2021/01/01 07:13:19;;;;;;;3.30;3.20;;;;;;;3.37;91.78;101084.31;6385443;27;20201;-77
2021/01/01 07:16:24;;;;;;;3.93;3.40;;;;;;;3.49;91.72;101088.38;6377961;27;20196;-76
2021/01/01 07:19:29;;;;;;;3.00;2.90;;;;;;;3.51;91.79;101086.38;6395356;27;20181;-77
2021/01/01 07:22:33;;;;;;;3.60;3.30;;;;;;;3.55;92.10;101095.81;6396189;27;20647;-76
2021/01/01 07:25:37;;;;;;;3.30;3.20;;;;;;;3.51;91.84;101091.78;6384743;27;20224;-76
2021/01/01 07:28:42;;;;;;;3.30;3.10;;;;;;;3.60;91.42;101096.16;6373294;27;20245;-77
2021/01/01 07:31:46;;;;;;;2.93;2.73;;;;;;;3.38;93.08;101096.81;6389832;27;20657;-77
2021/01/01 07:34:52;;;;;;;3.00;2.80;;;;;;;3.44;93.11;101090.72;6392032;27;20471;-76
2021/01/01 07:37:56;;;;;;;2.57;2.37;;;;;;;3.46;93.12;101098.69;6387756;27;20200;-76
2021/01/01 07:40:59;;;;;;;2.90;2.80;;;;;;;3.46;92.76;101080.66;6387987;27;20203;-77
2021/01/01 07:44:05;;;;;;;2.97;2.80;;;;;;;3.36;93.05;101071.84;6390139;27;20669;-77
2021/01/01 07:47:11;;;;;;;2.50;2.40;;;;;;;3.62;92.76;101094.13;6387040;27;20197;-77
2021/01/01 07:50:17;;;;;;;2.87;2.80;;;;;;;3.63;92.41;101098.53;6389760;27;20281;-77
2021/01/01 07:53:21;;;;;;;3.00;2.90;;;;;;;3.53;92.51;101099.69;6388427;27;20211;-78
2021/01/01 07:56:25;;;;;;;2.77;2.67;;;;;;;3.57;92.60;101088.41;6383496;27;20197;-76
2021/01/01 07:59:28;;;;;;;3.20;3.00;;;;;;;3.31;92.89;101068.81;6386697;27;20616;-77
2021/01/01 08:02:32;;;;;;;3.10;3.00;;;;;;;3.45;93.07;101092.44;6383753;27;20204;-77
2021/01/01 08:05:38;;;;;;;2.63;2.53;;;;;;;3.40;94.31;101100.16;6388283;27;20279;-77
2021/01/01 08:08:41;;;;;;;3.20;3.00;;;;;;;3.27;94.57;101105.19;6387030;27;20208;-77
2021/01/01 08:11:44;;;;;;;3.40;3.30;;;;;;;3.34;94.68;101103.50;6387104;27;21118;-78
2021/01/01 08:14:50;;;;;;;2.93;2.83;;;;;;;3.36;94.49;101103.38;6386777;27;20283;-75
2021/01/01 08:17:53;;;;;;;3.67;3.47;;;;;;;3.53;93.85;101110.50;6391959;27;20536;-76
2021/01/01 08:20:59;;;;;;;2.97;2.80;;;;;;;3.47;93.37;101101.19;6388048;27;20191;-77
2021/01/01 08:24:08;;;;;;;2.60;2.50;;;;;;;3.57;93.07;101123.47;6383312;27;20271;-76
2021/01/01 08:27:13;;;;;;;2.83;2.73;;;;;;;3.46;94.86;101118.41;6395269;27;20899;-75
2021/01/01 08:30:18;;;;;;;2.90;2.90;;;;;;;3.52;93.38;101120.44;6386394;27;20253;-76
2021/01/01 08:33:31;;;;;;;2.90;2.80;;;;;;;3.56;92.81;101113.72;6376962;27;20201;-75
2021/01/01 08:36:37;;;;;;;2.50;2.50;;;;;;;3.78;90.42;101121.16;6377238;27;20678;-76
2021/01/01 08:39:40;;;;;;;3.20;3.00;;;;;;;3.77;89.54;101129.44;6384010;27;20289;-78
2021/01/01 08:42:44;;;;;;;3.00;2.90;;;;;;;3.63;90.58;101114.72;6386661;27;20205;-75
2021/01/01 08:45:47;;;;;;;3.27;3.17;;;;;;;3.66;90.96;101125.19;6382916;27;20527;-78
2021/01/01 08:48:50;;;;;;;2.93;2.87;;;;;;;3.38;92.01;101102.19;6385314;27;20211;-77
2021/01/01 08:52:10;;;;;;;3.10;3.00;;;;;;;3.58;92.60;101133.28;6382163;27;20215;-77
2021/01/01 08:55:16;;;;;;;3.23;3.03;;;;;;;3.59;93.49;101137.66;6389521;27;20623;-77
2021/01/01 08:58:22;;;;;;;2.90;2.80;;;;;;;3.62;93.34;101142.72;6376744;27;20216;-77
2021/01/01 09:01:45;;;;;;;3.93;3.33;;;;;;;3.64;94.05;101140.72;6373039;27;20515;-76
2021/01/01 09:04:49;;;;;;;3.53;3.43;;;;;;;3.73;92.44;101139.72;6372162;27;20235;-76
2021/01/01 09:08:10;;;;;;;3.47;3.37;;;;;;;3.69;92.24;101132.13;6377377;27;20724;-77
2021/01/01 09:11:21;;;;;;;4.37;4.10;;;;;;;3.62;92.33;101125.69;6374186;27;20250;-77
2021/01/01 09:14:24;;;;;;;3.80;3.60;;;;;;;3.76;92.44;101134.00;6377733;27;20199;-76
2021/01/01 09:17:28;;;;;;;4.40;4.20;;;;;;;3.86;91.86;101135.66;6376302;27;20292;-77
2021/01/01 09:20:32;;;;;;;3.97;3.67;;;;;;;3.73;92.41;101144.25;6381015;27;20193;-77
2021/01/01 09:23:38;;;;;;;3.60;3.40;;;;;;;3.86;91.41;101138.38;6384895;27;20300;-76
2021/01/01 09:26:41;;;;;;;3.10;3.00;;;;;;;3.89;91.25;101138.03;6381090;27;20318;-76
2021/01/01 09:29:44;;;;;;;3.40;3.20;;;;;;;3.98;90.69;101142.47;6382976;27;20656;-77
2021/01/01 09:32:49;;;;;;;3.10;3.00;;;;;;;4.00;90.40;101140.44;6405695;27;20200;-77
2021/01/01 09:35:53;;;;;;;3.40;3.30;;;;;;;3.94;90.03;101135.69;6378763;27;20193;-77
2021/01/01 09:38:59;;;;;;;4.93;3.87;;;;;;;4.04;90.62;101142.63;6384510;27;20281;-77
2021/01/01 09:42:06;;;;;;;3.50;3.40;;;;;;;4.01;90.13;101147.50;6386034;27;20204;-78
2021/01/01 09:45:10;;;;;;;5.43;3.70;;;;;;;3.99;90.05;101139.59;6385931;27;20204;-76
2021/01/01 09:48:23;;;;;;;3.27;3.17;;;;;;;4.09;89.74;101144.81;6365111;27;20209;-76
2021/01/01 09:51:26;;;;;;;3.67;3.57;;;;;;;4.13;89.73;101156.97;6387015;27;20677;-77
2021/01/01 09:54:31;;;;;;;3.83;3.43;;;;;;;4.01;89.68;101117.81;6389109;27;20200;-75
2021/01/01 09:57:34;;;;;;;3.70;3.50;;;;;;;4.17;90.02;101142.97;6389753;27;20201;-77
2021/01/01 10:00:38;;;;;;;3.13;3.03;;;;;;;4.14;89.96;101148.72;6383812;27;20523;-77
2021/01/01 10:03:49;;;;;;;3.30;3.20;;;;;;;4.16;90.39;101148.56;6383711;27;20696;-77
2021/01/01 10:06:52;;;;;;;3.80;3.50;;;;;;;4.14;89.80;101131.66;6381703;27;20206;-76
2021/01/01 10:09:57;;;;;;;3.37;3.27;;;;;;;4.10;90.19;101138.41;6387005;27;20209;-76
2021/01/01 10:13:00;;;;;;;3.57;3.33;;;;;;;4.04;90.46;101141.78;6389984;27;20200;-77
2021/01/01 10:16:06;;;;;;;3.37;3.13;;;;;;;3.96;90.40;101137.22;6390909;27;20201;-77
2021/01/01 10:19:10;;;;;;;3.27;2.93;;;;;;;3.84;91.51;101135.00;6388055;27;20571;-77
2021/01/01 10:22:16;;;;;;;2.80;2.70;;;;;;;3.86;91.46;101127.56;6394248;27;20197;-76
2021/01/01 10:25:20;;;;;;;2.90;2.90;;;;;;;3.90;91.06;101128.94;6390725;27;20227;-77
2021/01/01 10:28:27;;;;;;;3.03;2.93;;;;;;;3.88;92.34;101133.69;6387753;27;20205;-76
2021/01/01 10:31:30;;;;;;;3.10;2.90;;;;;;;3.99;92.12;101123.38;6390536;27;20200;-77
2021/01/01 10:34:34;;;;;;;3.47;3.37;;;;;;;4.10;90.99;101116.81;6390952;27;20204;-77
2021/01/01 10:37:37;;;;;;;3.77;3.30;;;;;;;4.20;91.22;101126.44;6398139;27;20190;-77
2021/01/01 10:40:42;;;;;;;3.57;3.30;;;;;;;4.28;90.25;101122.88;6399539;27;20198;-76
2021/01/01 10:43:45;;;;;;;3.60;3.30;;;;;;;4.31;90.92;101125.25;6389116;27;20311;-77
2021/01/01 10:46:52;;;;;;;5.00;3.73;;;;;;;4.33;90.75;101128.63;6387819;27;20240;-77
2021/01/01 10:49:56;;;;;;;3.50;3.30;;;;;;;4.19;91.31;101129.28;6392462;27;20209;-77
2021/01/01 10:52:59;;;;;;;4.07;3.50;;;;;;;4.29;90.99;101136.22;6384336;27;20664;-75
2021/01/01 10:56:06;;;;;;;3.90;3.80;;;;;;;4.28;90.65;101112.94;6391734;27;20629;-76
2021/01/01 10:59:10;;;;;;;5.40;5.00;;;;;;;4.31;90.78;101130.66;6386053;27;20200;-75
2021/01/01 11:02:13;;;;;;;7.47;6.07;;;;;;;4.17;92.23;101136.72;6380614;27;20204;-77
2021/01/01 11:05:19;;;;;;;4.80;4.50;;;;;;;4.28;91.74;101133.69;6392822;27;20282;-76
2021/01/01 11:08:23;;;;;;;4.43;3.57;;;;;;;4.32;91.67;101135.88;6387060;27;20706;-78
2021/01/01 11:11:28;;;;;;;3.50;3.40;;;;;;;4.33;91.02;101128.63;6388415;27;20210;-75
2021/01/01 11:14:47;;;;;;;3.57;3.27;;;;;;;4.33;91.40;101131.31;6381730;27;20243;-75
2021/01/01 12:19:53;;;;;;;5.00;4.60;;;;;;;4.20;94.01;101153.44;6382727;27;20205;-76
2021/01/01 12:23:04;;;;;;;6.33;5.17;;;;;;;4.21;93.76;101170.50;6385581;27;20222;-77
2021/01/01 12:26:09;;;;;;;4.93;4.53;;;;;;;4.00;93.81;101145.84;6385201;27;20219;-77
2021/01/01 12:29:32;;;;;;;4.87;4.57;;;;;;;4.18;94.15;101144.69;6380043;27;20226;-78
2021/01/01 12:32:37;;;;;;;5.83;4.93;;;;;;;4.10;93.37;101124.91;6381487;27;20202;-77
2021/01/01 12:35:42;;;;;;;5.83;5.27;;;;;;;4.29;92.38;101162.38;6382806;27;20195;-77
2021/01/01 12:38:45;;;;;;;6.57;5.97;;;;;;;4.29;92.08;101162.38;6383138;27;20201;-77
2021/01/01 12:41:49;;;;;;;5.23;4.93;;;;;;;4.27;93.01;101156.31;6382030;27;20197;-77
2021/01/01 12:44:52;;;;;;;5.53;5.13;;;;;;;4.29;92.20;101127.25;6383658;27;20200;-79
2021/01/01 12:47:56;;;;;;;18.33;11.03;;;;;;;4.24;91.67;101159.34;6376615;27;20373;-77
2021/01/01 12:51:01;;;;;;;5.53;5.03;;;;;;;4.24;91.72;101148.53;6401712;27;20237;-78
2021/01/01 12:54:07;;;;;;;5.30;4.87;;;;;;;4.13;93.08;101148.88;6380089;27;20696;-77
2021/01/01 12:57:10;;;;;;;5.33;4.83;;;;;;;4.19;92.91;101161.69;6382375;27;20201;-78
2021/01/01 13:00:15;;;;;;;4.80;4.43;;;;;;;4.26;93.15;101157.34;6380101;27;20726;-78
2021/01/01 13:03:38;;;;;;;5.20;4.80;;;;;;;4.27;93.34;101149.03;6379035;27;20262;-77
2021/01/01 13:06:42;;;;;;;4.93;4.63;;;;;;;4.31;93.51;101157.66;6379378;27;20197;-78
2021/01/01 13:09:45;;;;;;;4.70;4.17;;;;;;;4.40;92.53;101153.94;6385961;27;20274;-77
2021/01/01 13:12:49;;;;;;;4.23;4.00;;;;;;;4.25;92.45;101158.34;6387273;27;20199;-77
2021/01/01 13:15:52;;;;;;;4.47;4.27;;;;;;;4.25;92.84;101166.44;6390315;27;20222;-78
2021/01/01 13:18:55;;;;;;;4.30;4.10;;;;;;;4.13;93.57;101154.28;6380630;27;20259;-78
2021/01/01 13:21:59;;;;;;;4.03;3.90;;;;;;;4.12;93.79;101148.03;6390624;27;20194;-78
2021/01/01 13:25:04;;;;;;;3.70;3.43;;;;;;;3.97;94.05;101141.59;6392456;27;20236;-78
2021/01/01 13:28:13;;;;;;;3.97;3.73;;;;;;;4.07;94.86;101153.09;6391163;27;20338;-77
2021/01/01 13:31:17;;;;;;;4.67;4.27;;;;;;;3.78;94.80;101121.16;6387652;27;20301;-77
2021/01/01 13:34:21;;;;;;;3.83;3.63;;;;;;;3.85;95.76;101158.28;6390254;27;20201;-78
2021/01/01 13:37:25;;;;;;;3.63;3.37;;;;;;;3.99;95.22;101144.13;6392720;27;20663;-77
2021/01/01 13:40:28;;;;;;;3.87;3.70;;;;;;;3.72;93.63;101111.03;6392576;27;20203;-78
2021/01/01 13:43:32;;;;;;;4.07;3.70;;;;;;;3.98;93.92;101154.06;6388909;27;20667;-78
2021/01/01 13:46:35;;;;;;;3.50;3.30;;;;;;;3.98;93.51;101153.25;6382121;27;20804;-77
2021/01/01 13:49:39;;;;;;;3.63;3.47;;;;;;;3.96;94.18;101166.06;6393181;27;20223;-77
2021/01/01 13:52:43;;;;;;;3.57;3.37;;;;;;;3.91;94.06;101163.00;6392692;27;20225;-78
2021/01/01 13:55:47;;;;;;;3.93;3.67;;;;;;;4.03;94.37;101164.41;6395482;27;20262;-78
2021/01/01 13:58:50;;;;;;;3.83;3.50;;;;;;;3.92;94.55;101159.31;6391880;27;20578;-77
2021/01/01 14:01:55;;;;;;;4.13;3.83;;;;;;;3.90;95.17;101161.34;6383871;27;20318;-77
2021/01/01 14:04:58;;;;;;;3.77;3.57;;;;;;;3.84;95.66;101172.78;6390233;27;20186;-77
2021/01/01 14:08:03;;;;;;;3.60;3.40;;;;;;;3.78;95.55;101167.03;6391737;27;20204;-77
2021/01/01 14:11:09;;;;;;;3.73;3.43;;;;;;;3.80;95.64;101167.72;6394750;27;20205;-77
2021/01/01 14:14:14;;;;;;;3.07;3.03;;;;;;;3.87;96.15;101169.75;6379890;27;20734;-77
2021/01/01 14:17:17;;;;;;;3.40;3.30;;;;;;;3.83;96.13;101171.13;6385584;27;20293;-77
2021/01/01 14:20:20;;;;;;;4.23;4.07;;;;;;;3.72;96.62;101164.19;6370825;27;20287;-77
2021/01/01 14:23:31;;;;;;;5.03;3.90;;;;;;;3.68;96.88;101169.03;6380727;27;20186;-77
2021/01/01 14:26:34;;;;;;;3.43;3.33;;;;;;;3.64;97.04;101172.25;6393145;27;20264;-77
2021/01/01 14:29:38;;;;;;;4.03;3.83;;;;;;;3.64;97.57;101172.25;6385510;27;20199;-77
2021/01/01 14:32:41;;;;;;;3.57;3.47;;;;;;;3.66;97.76;101165.66;6385877;27;20229;-75
2021/01/01 14:35:45;;;;;;;4.90;4.60;;;;;;;3.62;97.11;101169.69;6379814;27;20283;-75
2021/01/01 14:38:49;;;;;;;4.20;3.90;;;;;;;3.49;96.68;101153.13;6384617;27;20256;-76
2021/01/01 14:41:53;;;;;;;4.10;3.90;;;;;;;3.59;96.36;101144.91;6382050;27;20208;-76
2021/01/01 14:44:57;;;;;;;3.53;3.43;;;;;;;3.62;96.82;101169.69;6377784;27;20695;-77
2021/01/01 14:48:01;;;;;;;4.07;3.80;;;;;;;3.63;97.57;101157.91;6377489;27;20766;-76
2021/01/01 14:51:06;;;;;;;2.80;2.77;;;;;;;3.55;96.70;101157.88;6385823;27;20272;-77
2021/01/01 14:54:10;;;;;;;2.60;2.50;;;;;;;3.50;96.53;101154.81;6383140;27;20290;-77
2021/01/01 14:57:15;;;;;;;3.10;3.00;;;;;;;3.51;96.85;101155.69;6385760;27;20477;-76
2021/01/01 15:00:19;;;;;;;3.73;3.50;;;;;;;3.53;96.13;101134.75;6384480;27;20578;-75
2021/01/01 15:03:38;;;;;;;5.03;4.63;;;;;;;3.66;95.70;101154.88;6397389;27;20246;-75
2021/01/01 15:06:44;;;;;;;3.77;3.57;;;;;;;3.64;96.38;101162.31;6379512;27;20552;-78
2021/01/01 15:09:48;;;;;;;3.90;3.70;;;;;;;3.71;95.27;101163.31;6378048;27;20202;-77
2021/01/01 15:12:51;;;;;;;3.40;3.20;;;;;;;3.61;96.37;101164.47;6378602;27;20224;-76
2021/01/01 15:15:55;;;;;;;3.40;3.30;;;;;;;3.60;95.46;101155.53;6376903;27;20289;-76
2021/01/01 15:19:01;;;;;;;3.00;2.90;;;;;;;3.66;95.85;101165.66;6383688;27;20274;-77
2021/01/01 15:22:06;;;;;;;3.07;2.90;;;;;;;3.77;95.93;101149.16;6385707;27;20239;-77
2021/01/01 15:25:13;;;;;;;3.00;2.90;;;;;;;3.69;96.47;101173.44;6383718;27;20228;-78
2021/01/01 15:28:23;;;;;;;3.23;3.13;;;;;;;3.90;96.06;101172.13;6384482;27;20218;-77